createdAt,value
2023-03-26T00:04:28.142Z,17.00
2023-03-26T00:09:29.940Z,17.00
2023-03-26T00:14:32.635Z,17.00
2023-03-26T00:19:34.955Z,17.00
2023-03-26T00:24:37.556Z,17.00
2023-03-26T00:29:40.014Z,17.00
2023-03-26T00:34:42.429Z,16.90
2023-03-26T00:39:44.702Z,16.90
2023-03-26T00:44:46.653Z,16.90
2023-03-26T00:49:48.933Z,16.90
2023-03-26T00:54:54.032Z,16.90
2023-03-26T00:59:56.103Z,16.90
2023-03-26T01:05:02.692Z,16.90
2023-03-26T01:10:04.545Z,16.90
2023-03-26T01:15:08.404Z,16.90
2023-03-26T01:20:15.138Z,16.90
2023-03-26T01:25:17.170Z,16.90
2023-03-26T01:30:18.960Z,16.90
2023-03-26T01:35:31.537Z,16.90
2023-03-26T01:40:43.881Z,16.90
2023-03-26T01:45:47.847Z,16.90
2023-03-26T01:50:53.683Z,16.90
2023-03-26T01:56:07.682Z,16.90
2023-03-26T02:01:16.834Z,16.80
2023-03-26T02:06:39.130Z,16.80
2023-03-26T02:11:41.549Z,16.80
2023-03-26T02:16:47.051Z,16.80
2023-03-26T02:21:51.810Z,16.80
2023-03-26T02:26:53.820Z,16.80
2023-03-26T02:31:55.558Z,16.80
2023-03-26T02:36:57.823Z,16.80
2023-03-26T02:41:59.537Z,16.80
2023-03-26T02:47:01.342Z,16.80
2023-03-26T02:52:06.737Z,16.80
2023-03-26T02:57:08.546Z,16.80
2023-03-26T03:02:10.381Z,16.80
2023-03-26T03:07:15.082Z,16.80
2023-03-26T03:12:16.896Z,16.70
2023-03-26T03:17:20.954Z,16.70
2023-03-26T03:22:23.011Z,16.70
2023-03-26T03:27:26.387Z,16.70
2023-03-26T03:32:28.350Z,16.70
2023-03-26T03:37:30.196Z,16.70
2023-03-26T03:42:31.908Z,16.70
2023-03-26T05:05:41.122Z,16.90
2023-03-26T05:10:42.701Z,17.00
2023-03-26T05:15:44.712Z,17.10
2023-03-26T05:20:46.508Z,17.10
2023-03-26T05:25:48.246Z,17.10
2023-03-26T05:30:51.025Z,17.10
2023-03-26T05:36:03.028Z,17.10
2023-03-26T05:41:06.247Z,17.10
2023-03-26T05:46:08.144Z,17.10
2023-03-26T05:51:09.805Z,17.10
2023-03-26T05:56:11.840Z,17.00
2023-03-26T06:01:16.839Z,17.00
2023-03-26T06:06:20.478Z,17.00
2023-03-26T06:11:22.055Z,17.00
2023-03-26T06:16:27.831Z,16.90
2023-03-26T06:21:29.883Z,17.00
2023-03-26T06:26:31.468Z,16.90
2023-03-26T06:31:33.223Z,16.90
2023-03-26T06:36:34.904Z,16.90
2023-03-26T06:41:36.689Z,16.90
2023-03-26T06:46:38.481Z,16.90
2023-03-26T06:51:41.387Z,17.00
2023-03-26T06:56:43.113Z,17.00
2023-03-26T07:01:46.789Z,17.00
2023-03-26T07:06:48.620Z,17.00
2023-03-26T07:11:50.404Z,17.10
2023-03-26T07:16:52.269Z,17.10
2023-03-26T07:21:54.275Z,17.10
2023-03-26T07:27:14.955Z,17.00
2023-03-26T07:32:22.050Z,17.00
2023-03-26T07:37:29.139Z,17.00
2023-03-26T07:42:33.578Z,17.00
2023-03-26T07:47:35.542Z,17.00
2023-03-26T07:52:37.288Z,17.00
2023-03-26T07:57:47.685Z,17.00
2023-03-26T08:02:55.414Z,17.00
2023-03-26T08:07:57.232Z,17.00
2023-03-26T08:13:22.674Z,16.90
2023-03-26T08:18:39.108Z,16.90
2023-03-26T08:23:50.529Z,16.90
2023-03-26T08:28:52.962Z,16.90
2023-03-26T08:33:54.619Z,16.90
2023-03-26T08:38:57.621Z,16.90
2023-03-26T08:44:22.218Z,16.90
2023-03-26T08:49:42.787Z,16.90
2023-03-26T08:54:48.302Z,16.90
2023-03-26T09:00:11.009Z,16.90
2023-03-26T09:05:32.625Z,17.00
2023-03-26T09:10:40.492Z,17.00
2023-03-26T09:15:56.184Z,17.00
2023-03-26T09:21:16.664Z,17.00
2023-03-26T09:26:18.212Z,16.90
2023-03-26T09:31:38.871Z,16.90
2023-03-26T09:37:02.628Z,16.90
2023-03-26T09:42:23.087Z,16.90
2023-03-26T09:47:34.940Z,16.90
2023-03-26T09:52:42.714Z,16.90
2023-03-26T09:58:04.402Z,16.90
2023-03-26T10:03:17.319Z,17.00
2023-03-26T10:08:37.574Z,17.00
2023-03-26T10:13:54.660Z,17.00
2023-03-26T10:19:28.744Z,17.10
2023-03-26T10:24:36.475Z,17.30
2023-03-26T10:29:38.208Z,17.40
2023-03-26T10:34:46.537Z,17.40
2023-03-26T10:39:48.097Z,17.50
2023-03-26T10:44:58.787Z,17.50
2023-03-26T10:50:23.078Z,17.50
2023-03-26T10:55:28.876Z,17.50
2023-03-26T11:00:34.518Z,17.60
2023-03-26T11:05:38.978Z,17.60
2023-03-26T11:10:49.728Z,17.60
2023-03-26T11:15:51.327Z,17.60
2023-03-26T11:21:19.511Z,17.60
2023-03-26T11:26:31.260Z,17.60
2023-03-26T11:31:32.852Z,17.50
2023-03-26T11:36:39.546Z,17.50
2023-03-26T11:41:41.393Z,17.50
2023-03-26T11:46:46.109Z,17.50
2023-03-26T11:51:48.856Z,17.40
2023-03-26T11:57:05.668Z,17.40
2023-03-26T12:02:11.538Z,17.40
2023-03-26T12:07:32.287Z,17.40
2023-03-26T12:12:37.848Z,17.40
2023-03-26T12:17:40.139Z,17.40
2023-03-26T12:22:44.664Z,17.40
2023-03-26T12:27:52.962Z,17.50
2023-03-26T12:32:57.533Z,17.40
2023-03-26T12:38:19.109Z,17.40
2023-03-26T12:44:49.204Z,17.40
2023-03-26T12:48:52.611Z,17.50
2023-03-26T12:53:54.260Z,17.50
2023-03-26T12:59:07.722Z,17.70
2023-03-26T13:04:09.623Z,17.70
2023-03-26T13:09:28.299Z,17.70
2023-03-26T13:14:48.521Z,17.80
2023-03-26T13:20:01.788Z,17.80
2023-03-26T13:25:04.074Z,17.80
2023-03-26T13:30:20.387Z,17.80
2023-03-26T13:35:31.818Z,17.70
2023-03-26T13:40:36.509Z,17.70
2023-03-26T13:45:38.062Z,17.70
2023-03-26T13:50:42.907Z,17.80
2023-03-26T13:55:47.483Z,17.70
2023-03-26T14:00:56.775Z,17.70
2023-03-26T14:06:00.349Z,17.60
2023-03-26T14:11:07.642Z,17.60
2023-03-26T14:16:16.415Z,17.60
2023-03-26T14:21:37.022Z,17.60
2023-03-26T14:26:45.023Z,17.50
2023-03-26T14:32:06.308Z,17.50
2023-03-26T14:37:17.867Z,17.50
2023-03-26T14:42:48.562Z,17.50
2023-03-26T14:48:01.748Z,17.60
2023-03-26T14:53:11.828Z,17.70
2023-03-26T14:58:16.490Z,17.70
2023-03-26T15:03:38.655Z,17.70
2023-03-26T15:08:40.582Z,17.80
2023-03-26T15:14:01.178Z,17.80
2023-03-26T15:19:21.162Z,17.90
2023-03-26T15:24:43.353Z,17.90
2023-03-26T15:30:01.697Z,17.90
2023-03-26T15:35:21.923Z,17.90
2023-03-26T15:40:40.421Z,17.90
2023-03-26T15:45:48.005Z,18.00
2023-03-26T15:51:04.824Z,18.10
2023-03-26T15:56:09.566Z,18.20
2023-03-26T16:01:19.927Z,18.30
2023-03-26T16:06:31.110Z,18.50
2023-03-26T16:11:47.664Z,18.60
2023-03-26T16:16:52.089Z,18.80
2023-03-26T16:22:05.763Z,18.80
2023-03-26T16:27:13.142Z,18.70
2023-03-26T16:32:16.688Z,18.70
2023-03-26T16:37:36.707Z,18.70
2023-03-26T16:42:39.740Z,18.60
2023-03-26T16:47:45.913Z,18.50
2023-03-26T16:52:53.643Z,18.50
2023-03-26T16:58:03.472Z,18.40
2023-03-26T17:03:16.864Z,18.40
2023-03-26T17:08:36.605Z,18.30
2023-03-26T17:13:47.541Z,18.30
2023-03-26T17:18:58.338Z,18.20
2023-03-26T17:24:04.186Z,18.20
2023-03-26T17:29:08.870Z,18.10
2023-03-26T17:34:29.253Z,18.10
2023-03-26T17:39:40.214Z,18.10
2023-03-26T17:44:44.878Z,18.10
2023-03-26T17:49:48.229Z,18.00
2023-03-26T17:54:51.332Z,18.00
2023-03-26T17:59:57.714Z,18.00
2023-03-26T18:05:00.414Z,18.00
2023-03-26T18:10:28.828Z,18.00
2023-03-26T18:15:49.165Z,18.00
2023-03-26T18:20:51.371Z,18.00
2023-03-26T18:25:57.581Z,18.00
2023-03-26T18:31:08.239Z,18.00
2023-03-26T18:36:11.133Z,18.00
2023-03-26T18:41:22.239Z,18.00
2023-03-26T18:46:24.072Z,18.00
2023-03-26T18:51:26.402Z,18.00
2023-03-26T18:56:31.641Z,18.00
2023-03-26T19:01:36.507Z,18.00
2023-03-26T19:06:39.898Z,18.00
2023-03-26T19:11:41.686Z,18.00
2023-03-26T19:16:46.719Z,18.10
2023-03-26T19:21:49.085Z,18.00
2023-03-26T19:26:51.045Z,18.00
2023-03-26T19:31:52.930Z,18.00
2023-03-26T19:37:01.572Z,18.00
2023-03-26T19:42:04.631Z,18.10
2023-03-26T19:47:08.478Z,18.10
2023-03-26T19:52:12.995Z,18.10
2023-03-26T19:57:14.846Z,18.00
2023-03-26T20:02:16.928Z,18.00
2023-03-26T20:07:20.387Z,17.90
2023-03-26T20:12:22.791Z,17.90
2023-03-26T20:17:24.623Z,17.80
2023-03-26T20:22:26.748Z,17.80
2023-03-26T20:27:28.326Z,17.80
2023-03-26T20:32:34.338Z,17.70
2023-03-26T20:37:36.170Z,17.70
2023-03-26T20:42:38.321Z,17.70
2023-03-26T20:47:40.291Z,17.60
2023-03-26T20:52:43.919Z,17.60
2023-03-26T20:57:48.455Z,17.50
2023-03-26T21:02:53.874Z,17.50
2023-03-26T21:07:59.433Z,17.50
2023-03-26T21:13:16.731Z,17.50
2023-03-26T21:18:18.463Z,17.40
2023-03-26T21:23:25.937Z,17.40
2023-03-26T21:28:41.868Z,17.30
2023-03-26T21:33:45.022Z,17.30
2023-03-26T21:38:46.947Z,17.30
2023-03-26T21:43:48.886Z,17.30
2023-03-26T21:48:50.614Z,17.20
2023-03-26T21:53:52.415Z,17.20
2023-03-26T21:59:00.668Z,17.20
2023-03-26T22:04:21.033Z,17.20
2023-03-26T22:09:33.875Z,17.20
2023-03-26T22:14:38.054Z,17.10
2023-03-26T22:19:39.791Z,17.10
2023-03-26T22:24:41.382Z,17.10
2023-03-26T22:29:43.161Z,17.10
2023-03-26T22:34:45.190Z,17.10
2023-03-26T22:39:46.988Z,17.10
2023-03-26T22:44:48.563Z,17.10
2023-03-26T22:49:51.443Z,17.00
2023-03-26T22:54:53.321Z,17.00
2023-03-26T22:59:55.350Z,17.00
2023-03-26T23:04:57.227Z,17.00
2023-03-26T23:09:58.990Z,17.00
2023-03-26T23:15:04.973Z,16.90
2023-03-26T23:20:15.359Z,16.90
2023-03-26T23:25:17.203Z,16.90
2023-03-26T23:30:19.341Z,16.90
2023-03-26T23:35:21.135Z,16.90
2023-03-26T23:40:22.918Z,16.90
2023-03-26T23:45:24.625Z,16.90
2023-03-26T23:50:29.051Z,16.80
2023-03-26T23:55:30.895Z,16.80
